sensor_id;sensor_type;location;lat;lon;timestamp;pressure;altitude;pressure_sealevel;temperature;humidity
39363;BME280;25088;43.238;23.110;2023-08-06T00:01:49;95333.84;;;23.81;81.53
39363;BME280;25088;43.238;23.110;2023-08-06T00:04:14;95331.72;;;23.93;80.31
39363;BME280;25088;43.238;23.110;2023-08-06T00:06:39;95359.72;;;24.01;78.47
39363;BME280;25088;43.238;23.110;2023-08-06T00:09:05;95381.00;;;23.89;78.28
39363;BME280;25088;43.238;23.110;2023-08-06T00:11:30;95356.03;;;23.73;79.14
39363;BME280;25088;43.238;23.110;2023-08-06T00:13:56;95338.25;;;23.82;80.16
39363;BME280;25088;43.238;23.110;2023-08-06T00:16:21;95344.97;;;23.77;81.12
39363;BME280;25088;43.238;23.110;2023-08-06T00:18:47;95322.28;;;23.79;82.45
39363;BME280;25088;43.238;23.110;2023-08-06T00:21:12;95288.53;;;23.84;79.98
39363;BME280;25088;43.238;23.110;2023-08-06T00:23:38;95318.31;;;23.60;82.66
39363;BME280;25088;43.238;23.110;2023-08-06T00:26:04;95303.38;;;23.68;82.24
39363;BME280;25088;43.238;23.110;2023-08-06T00:28:29;95302.88;;;23.63;82.10
39363;BME280;25088;43.238;23.110;2023-08-06T00:30:55;95314.34;;;23.81;82.33
39363;BME280;25088;43.238;23.110;2023-08-06T00:33:24;95326.47;;;23.69;82.98
39363;BME280;25088;43.238;23.110;2023-08-06T00:35:50;95315.53;;;23.80;79.74
39363;BME280;25088;43.238;23.110;2023-08-06T00:38:15;95312.84;;;23.87;80.91
39363;BME280;25088;43.238;23.110;2023-08-06T00:40:41;95356.00;;;23.93;81.02
39363;BME280;25088;43.238;23.110;2023-08-06T00:43:06;95357.13;;;23.50;83.41
39363;BME280;25088;43.238;23.110;2023-08-06T00:45:35;95356.97;;;23.81;80.49
39363;BME280;25088;43.238;23.110;2023-08-06T00:48:01;95328.28;;;23.81;80.42
39363;BME280;25088;43.238;23.110;2023-08-06T00:50:28;95298.16;;;23.67;80.94
39363;BME280;25088;43.238;23.110;2023-08-06T00:52:54;95314.34;;;23.81;81.12
39363;BME280;25088;43.238;23.110;2023-08-06T00:55:20;95320.06;;;23.88;79.71
39363;BME280;25088;43.238;23.110;2023-08-06T00:57:45;95299.69;;;23.84;78.95
39363;BME280;25088;43.238;23.110;2023-08-06T01:00:12;95306.25;;;23.95;81.01
39363;BME280;25088;43.238;23.110;2023-08-06T01:02:39;95314.91;;;23.90;80.06
39363;BME280;25088;43.238;23.110;2023-08-06T01:05:04;95317.47;;;23.98;80.43
39363;BME280;25088;43.238;23.110;2023-08-06T01:07:47;95310.25;;;24.20;78.42
39363;BME280;25088;43.238;23.110;2023-08-06T01:13:42;95315.66;;;24.33;77.04
39363;BME280;25088;43.238;23.110;2023-08-06T01:16:09;95326.75;;;24.29;76.62
39363;BME280;25088;43.238;23.110;2023-08-06T01:18:36;95333.44;;;24.02;76.60
39363;BME280;25088;43.238;23.110;2023-08-06T01:21:04;95306.81;;;24.04;78.53
39363;BME280;25088;43.238;23.110;2023-08-06T01:23:30;95287.66;;;24.03;78.44
39363;BME280;25088;43.238;23.110;2023-08-06T01:31:31;95272.47;;;24.23;74.89
39363;BME280;25088;43.238;23.110;2023-08-06T01:34:01;95271.50;;;24.12;76.34
39363;BME280;25088;43.238;23.110;2023-08-06T01:36:28;95269.19;;;23.71;79.94
39363;BME280;25088;43.238;23.110;2023-08-06T01:38:54;95249.34;;;23.54;79.75
39363;BME280;25088;43.238;23.110;2023-08-06T01:41:19;95250.28;;;23.19;83.04
39363;BME280;25088;43.238;23.110;2023-08-06T01:43:45;95235.63;;;23.22;82.78
39363;BME280;25088;43.238;23.110;2023-08-06T01:46:10;95250.72;;;23.21;83.97
39363;BME280;25088;43.238;23.110;2023-08-06T01:48:35;95242.84;;;23.46;83.22
39363;BME280;25088;43.238;23.110;2023-08-06T01:51:04;95228.47;;;23.63;81.78
39363;BME280;25088;43.238;23.110;2023-08-06T01:53:29;95226.63;;;23.52;81.83
39363;BME280;25088;43.238;23.110;2023-08-06T01:55:55;95207.44;;;23.24;83.75
39363;BME280;25088;43.238;23.110;2023-08-06T01:58:20;95218.56;;;23.24;83.68
39363;BME280;25088;43.238;23.110;2023-08-06T02:00:45;95211.28;;;23.38;82.87
39363;BME280;25088;43.238;23.110;2023-08-06T02:03:11;95216.66;;;23.51;83.63
39363;BME280;25088;43.238;23.110;2023-08-06T02:05:36;95223.91;;;23.32;85.63
39363;BME280;25088;43.238;23.110;2023-08-06T02:08:02;95221.34;;;23.24;86.05
39363;BME280;25088;43.238;23.110;2023-08-06T02:10:27;95232.16;;;23.48;83.69
39363;BME280;25088;43.238;23.110;2023-08-06T02:12:53;95225.88;;;23.55;83.56
39363;BME280;25088;43.238;23.110;2023-08-06T02:15:18;95216.03;;;23.61;83.29
39363;BME280;25088;43.238;23.110;2023-08-06T02:17:43;95210.75;;;23.52;84.12
39363;BME280;25088;43.238;23.110;2023-08-06T02:20:09;95219.34;;;23.66;83.57
39363;BME280;25088;43.238;23.110;2023-08-06T02:22:35;95212.25;;;23.69;83.50
39363;BME280;25088;43.238;23.110;2023-08-06T02:25:00;95221.88;;;23.75;83.15
39363;BME280;25088;43.238;23.110;2023-08-06T02:27:25;95221.31;;;23.89;81.54
39363;BME280;25088;43.238;23.110;2023-08-06T02:29:51;95225.88;;;24.01;79.47
39363;BME280;25088;43.238;23.110;2023-08-06T02:32:16;95227.25;;;24.10;78.28
39363;BME280;25088;43.238;23.110;2023-08-06T02:34:42;95224.50;;;24.14;77.27
39363;BME280;25088;43.238;23.110;2023-08-06T02:37:07;95209.28;;;24.08;78.04
39363;BME280;25088;43.238;23.110;2023-08-06T02:39:33;95216.16;;;23.91;79.13
39363;BME280;25088;43.238;23.110;2023-08-06T02:41:59;95209.78;;;23.90;78.60
39363;BME280;25088;43.238;23.110;2023-08-06T02:44:27;95224.13;;;24.15;76.78
39363;BME280;25088;43.238;23.110;2023-08-06T02:46:53;95224.56;;;24.17;77.71
39363;BME280;25088;43.238;23.110;2023-08-06T02:49:19;95227.88;;;24.27;77.28
39363;BME280;25088;43.238;23.110;2023-08-06T02:51:45;95228.59;;;24.20;77.29
39363;BME280;25088;43.238;23.110;2023-08-06T02:54:10;95220.94;;;24.13;77.62
39363;BME280;25088;43.238;23.110;2023-08-06T02:56:36;95222.13;;;24.12;77.28
39363;BME280;25088;43.238;23.110;2023-08-06T02:59:01;95220.16;;;24.16;77.72
39363;BME280;25088;43.238;23.110;2023-08-06T03:01:27;95224.84;;;24.09;77.55
39363;BME280;25088;43.238;23.110;2023-08-06T03:03:53;95231.75;;;24.18;77.84
39363;BME280;25088;43.238;23.110;2023-08-06T03:06:19;95234.31;;;24.31;76.78
39363;BME280;25088;43.238;23.110;2023-08-06T03:08:44;95254.16;;;24.25;77.43
39363;BME280;25088;43.238;23.110;2023-08-06T03:11:10;95264.28;;;24.11;78.10
39363;BME280;25088;43.238;23.110;2023-08-06T03:13:35;95257.97;;;24.14;77.97
39363;BME280;25088;43.238;23.110;2023-08-06T03:16:01;95246.91;;;23.94;78.73
39363;BME280;25088;43.238;23.110;2023-08-06T03:18:26;95254.56;;;24.01;78.13
39363;BME280;25088;43.238;23.110;2023-08-06T03:20:52;95263.72;;;24.02;78.40
39363;BME280;25088;43.238;23.110;2023-08-06T03:23:18;95271.53;;;24.15;77.80
39363;BME280;25088;43.238;23.110;2023-08-06T03:25:44;95272.63;;;24.07;77.47
39363;BME280;25088;43.238;23.110;2023-08-06T03:28:10;95269.69;;;24.00;77.75
39363;BME280;25088;43.238;23.110;2023-08-06T03:30:36;95263.47;;;24.10;77.09
39363;BME280;25088;43.238;23.110;2023-08-06T03:33:01;95264.88;;;23.97;78.80
39363;BME280;25088;43.238;23.110;2023-08-06T03:35:27;95249.25;;;23.69;80.05
39363;BME280;25088;43.238;23.110;2023-08-06T03:37:52;95244.00;;;23.45;81.31
39363;BME280;25088;43.238;23.110;2023-08-06T03:40:18;95237.25;;;23.46;82.70
39363;BME280;25088;43.238;23.110;2023-08-06T03:42:43;95229.31;;;23.25;83.32
39363;BME280;25088;43.238;23.110;2023-08-06T03:45:09;95235.69;;;23.26;82.46
39363;BME280;25088;43.238;23.110;2023-08-06T03:47:34;95243.47;;;23.16;83.11
39363;BME280;25088;43.238;23.110;2023-08-06T03:50:00;95247.72;;;23.30;82.41
39363;BME280;25088;43.238;23.110;2023-08-06T03:52:25;95254.59;;;23.36;82.58
39363;BME280;25088;43.238;23.110;2023-08-06T03:54:51;95242.59;;;23.55;81.12
39363;BME280;25088;43.238;23.110;2023-08-06T03:57:17;95234.09;;;23.67;79.83
39363;BME280;25088;43.238;23.110;2023-08-06T03:59:42;95223.16;;;23.78;79.94
39363;BME280;25088;43.238;23.110;2023-08-06T04:02:07;95210.59;;;23.91;80.70
39363;BME280;25088;43.238;23.110;2023-08-06T04:04:33;95193.25;;;24.01;79.24
39363;BME280;25088;43.238;23.110;2023-08-06T04:06:58;95208.91;;;23.83;80.45
39363;BME280;25088;43.238;23.110;2023-08-06T04:09:24;95220.81;;;23.60;81.43
39363;BME280;25088;43.238;23.110;2023-08-06T04:11:49;95229.09;;;23.57;81.85
39363;BME280;25088;43.238;23.110;2023-08-06T04:14:14;95230.78;;;23.61;81.92
39363;BME280;25088;43.238;23.110;2023-08-06T04:16:40;95217.91;;;23.53;82.06
39363;BME280;25088;43.238;23.110;2023-08-06T04:19:05;95217.63;;;23.62;81.63
39363;BME280;25088;43.238;23.110;2023-08-06T04:21:31;95213.78;;;23.47;81.50
39363;BME280;25088;43.238;23.110;2023-08-06T04:23:56;95227.16;;;23.57;81.30
39363;BME280;25088;43.238;23.110;2023-08-06T04:26:22;95233.34;;;23.70;81.04
39363;BME280;25088;43.238;23.110;2023-08-06T04:28:47;95236.75;;;23.83;79.85
39363;BME280;25088;43.238;23.110;2023-08-06T04:31:14;95221.88;;;23.75;80.77
39363;BME280;25088;43.238;23.110;2023-08-06T04:33:39;95224.81;;;23.82;79.78
39363;BME280;25088;43.238;23.110;2023-08-06T04:36:05;95224.69;;;23.75;80.16
39363;BME280;25088;43.238;23.110;2023-08-06T04:38:30;95209.69;;;23.83;78.86
39363;BME280;25088;43.238;23.110;2023-08-06T04:40:56;95222.69;;;23.76;79.19
39363;BME280;25088;43.238;23.110;2023-08-06T04:43:21;95221.97;;;23.79;79.54
39363;BME280;25088;43.238;23.110;2023-08-06T04:45:48;95231.94;;;23.80;80.60
39363;BME280;25088;43.238;23.110;2023-08-06T04:48:14;95227.09;;;23.77;79.85
39363;BME280;25088;43.238;23.110;2023-08-06T04:50:46;95223.94;;;23.78;80.29
39363;BME280;25088;43.238;23.110;2023-08-06T04:53:12;95225.03;;;23.96;78.34
39363;BME280;25088;43.238;23.110;2023-08-06T04:55:38;95230.56;;;23.93;78.31
39363;BME280;25088;43.238;23.110;2023-08-06T04:58:03;95224.59;;;23.94;77.80
39363;BME280;25088;43.238;23.110;2023-08-06T05:00:29;95226.69;;;24.01;77.44
39363;BME280;25088;43.238;23.110;2023-08-06T05:02:54;95224.06;;;23.85;78.27
39363;BME280;25088;43.238;23.110;2023-08-06T05:05:20;95228.56;;;23.93;78.24
39363;BME280;25088;43.238;23.110;2023-08-06T05:07:49;95225.94;;;24.04;78.59
39363;BME280;25088;43.238;23.110;2023-08-06T05:10:15;95221.81;;;23.94;78.74
39363;BME280;25088;43.238;23.110;2023-08-06T05:12:40;95213.13;;;23.99;79.06
39363;BME280;25088;43.238;23.110;2023-08-06T05:15:06;95211.28;;;24.07;78.66
39363;BME280;25088;43.238;23.110;2023-08-06T05:17:32;95205.38;;;24.12;78.53
39363;BME280;25088;43.238;23.110;2023-08-06T05:19:57;95200.69;;;24.20;77.28
39363;BME280;25088;43.238;23.110;2023-08-06T05:22:23;95184.69;;;24.13;77.57
39363;BME280;25088;43.238;23.110;2023-08-06T05:24:48;95199.91;;;23.70;80.36
39363;BME280;25088;43.238;23.110;2023-08-06T05:27:14;95208.22;;;23.47;83.60
39363;BME280;25088;43.238;23.110;2023-08-06T05:29:39;95205.72;;;23.38;83.64
39363;BME280;25088;43.238;23.110;2023-08-06T05:32:05;95205.22;;;23.56;83.92
39363;BME280;25088;43.238;23.110;2023-08-06T05:34:30;95201.66;;;23.78;81.22
39363;BME280;25088;43.238;23.110;2023-08-06T05:36:56;95196.09;;;23.82;81.30
39363;BME280;25088;43.238;23.110;2023-08-06T05:39:21;95195.59;;;23.99;79.26
39363;BME280;25088;43.238;23.110;2023-08-06T05:41:47;95192.75;;;23.95;79.19
39363;BME280;25088;43.238;23.110;2023-08-06T05:44:12;95196.97;;;23.86;80.28
39363;BME280;25088;43.238;23.110;2023-08-06T05:46:38;95194.31;;;23.93;81.39
39363;BME280;25088;43.238;23.110;2023-08-06T05:49:03;95199.19;;;23.99;79.50
39363;BME280;25088;43.238;23.110;2023-08-06T05:51:30;95199.19;;;23.99;79.76
39363;BME280;25088;43.238;23.110;2023-08-06T05:53:55;95205.34;;;23.86;79.74
39363;BME280;25088;43.238;23.110;2023-08-06T05:56:21;95209.53;;;23.72;81.39
39363;BME280;25088;43.238;23.110;2023-08-06T05:58:46;95200.53;;;23.83;81.53
39363;BME280;25088;43.238;23.110;2023-08-06T06:01:12;95219.28;;;23.86;81.93
39363;BME280;25088;43.238;23.110;2023-08-06T06:03:38;95224.13;;;24.15;80.91
39363;BME280;25088;43.238;23.110;2023-08-06T06:06:04;95215.28;;;24.10;80.43
39363;BME280;25088;43.238;23.110;2023-08-06T06:08:29;95225.22;;;24.34;79.83
39363;BME280;25088;43.238;23.110;2023-08-06T06:10:55;95216.75;;;24.53;79.11
39363;BME280;25088;43.238;23.110;2023-08-06T06:13:20;95220.44;;;24.61;78.50
39363;BME280;25088;43.238;23.110;2023-08-06T06:15:48;95224.22;;;24.75;76.78
39363;BME280;25088;43.238;23.110;2023-08-06T06:18:14;95224.13;;;24.98;75.57
39363;BME280;25088;43.238;23.110;2023-08-06T06:20:39;95231.63;;;25.24;74.37
39363;BME280;25088;43.238;23.110;2023-08-06T06:23:05;95215.66;;;25.21;73.76
39363;BME280;25088;43.238;23.110;2023-08-06T06:25:30;95222.66;;;25.08;73.82
39363;BME280;25088;43.238;23.110;2023-08-06T06:27:56;95229.28;;;25.26;72.72
39363;BME280;25088;43.238;23.110;2023-08-06T06:30:21;95236.78;;;25.56;70.44
39363;BME280;25088;43.238;23.110;2023-08-06T06:32:47;95256.41;;;25.63;72.01
39363;BME280;25088;43.238;23.110;2023-08-06T06:35:12;95265.53;;;25.57;71.17
39363;BME280;25088;43.238;23.110;2023-08-06T06:37:38;95272.59;;;25.47;71.18
39363;BME280;25088;43.238;23.110;2023-08-06T06:40:03;95279.03;;;25.51;71.39
39363;BME280;25088;43.238;23.110;2023-08-06T06:42:29;95274.31;;;25.21;73.43
39363;BME280;25088;43.238;23.110;2023-08-06T06:44:55;95284.53;;;25.10;73.66
39363;BME280;25088;43.238;23.110;2023-08-06T06:47:20;95289.09;;;24.95;73.54
39363;BME280;25088;43.238;23.110;2023-08-06T06:49:45;95291.28;;;25.09;73.58
39363;BME280;25088;43.238;23.110;2023-08-06T06:52:11;95289.41;;;25.17;73.76
39363;BME280;25088;43.238;23.110;2023-08-06T06:54:36;95284.19;;;25.15;73.28
39363;BME280;25088;43.238;23.110;2023-08-06T06:57:02;95293.06;;;25.24;72.86
39363;BME280;25088;43.238;23.110;2023-08-06T06:59:27;95293.75;;;25.14;71.82
39363;BME280;25088;43.238;23.110;2023-08-06T07:01:53;95282.66;;;24.91;73.37
39363;BME280;25088;43.238;23.110;2023-08-06T07:04:18;95291.19;;;25.02;73.58
39363;BME280;25088;43.238;23.110;2023-08-06T07:06:44;95279.53;;;24.96;72.58
39363;BME280;25088;43.238;23.110;2023-08-06T07:09:09;95303.16;;;25.02;73.09
39363;BME280;25088;43.238;23.110;2023-08-06T07:11:35;95314.72;;;24.74;73.78
39363;BME280;25088;43.238;23.110;2023-08-06T07:14:00;95313.31;;;24.88;73.84
39363;BME280;25088;43.238;23.110;2023-08-06T07:16:26;95309.25;;;24.82;74.54
39363;BME280;25088;43.238;23.110;2023-08-06T07:18:53;95317.31;;;24.87;74.15
39363;BME280;25088;43.238;23.110;2023-08-06T07:21:19;95324.56;;;24.91;73.53
39363;BME280;25088;43.238;23.110;2023-08-06T07:23:45;95313.25;;;24.84;73.65
39363;BME280;25088;43.238;23.110;2023-08-06T07:26:10;95319.31;;;24.90;73.22
39363;BME280;25088;43.238;23.110;2023-08-06T07:28:35;95328.41;;;24.83;74.20
39363;BME280;25088;43.238;23.110;2023-08-06T07:31:03;95326.16;;;24.92;72.98
39363;BME280;25088;43.238;23.110;2023-08-06T07:33:28;95327.34;;;24.91;73.36
39363;BME280;25088;43.238;23.110;2023-08-06T07:35:54;95324.97;;;24.93;73.01
39363;BME280;25088;43.238;23.110;2023-08-06T07:38:19;95339.84;;;24.74;74.72
39363;BME280;25088;43.238;23.110;2023-08-06T07:40:45;95344.88;;;24.65;74.28
39363;BME280;25088;43.238;23.110;2023-08-06T07:43:10;95350.31;;;24.55;74.86
39363;BME280;25088;43.238;23.110;2023-08-06T07:45:36;95364.19;;;24.51;75.37
39363;BME280;25088;43.238;23.110;2023-08-06T07:48:02;95359.06;;;24.53;75.21
39363;BME280;25088;43.238;23.110;2023-08-06T07:50:28;95352.25;;;24.77;73.80
39363;BME280;25088;43.238;23.110;2023-08-06T07:52:53;95351.44;;;24.77;74.14
39363;BME280;25088;43.238;23.110;2023-08-06T07:55:19;95357.72;;;24.70;74.41
39363;BME280;25088;43.238;23.110;2023-08-06T07:57:44;95356.81;;;24.89;72.77
39363;BME280;25088;43.238;23.110;2023-08-06T08:00:10;95348.91;;;24.94;72.52
39363;BME280;25088;43.238;23.110;2023-08-06T08:02:35;95337.34;;;24.96;71.39
39363;BME280;25088;43.238;23.110;2023-08-06T08:05:01;95350.53;;;25.22;69.79
39363;BME280;25088;43.238;23.110;2023-08-06T08:07:26;95349.56;;;25.11;70.46
39363;BME280;25088;43.238;23.110;2023-08-06T08:09:54;95341.13;;;25.37;69.84
39363;BME280;25088;43.238;23.110;2023-08-06T08:12:19;95340.47;;;25.47;69.49
39363;BME280;25088;43.238;23.110;2023-08-06T08:14:45;95333.91;;;25.70;68.70
39363;BME280;25088;43.238;23.110;2023-08-06T08:17:11;95332.84;;;25.78;67.63
39363;BME280;25088;43.238;23.110;2023-08-06T08:19:37;95333.84;;;25.96;68.03
39363;BME280;25088;43.238;23.110;2023-08-06T08:22:02;95338.50;;;25.82;67.34
39363;BME280;25088;43.238;23.110;2023-08-06T08:24:28;95331.66;;;26.20;66.43
39363;BME280;25088;43.238;23.110;2023-08-06T08:26:55;95327.34;;;26.26;66.95
39363;BME280;25088;43.238;23.110;2023-08-06T08:29:21;95340.25;;;26.41;66.31
39363;BME280;25088;43.238;23.110;2023-08-06T08:31:47;95342.50;;;25.84;68.31
39363;BME280;25088;43.238;23.110;2023-08-06T08:34:15;95345.13;;;26.07;65.86
39363;BME280;25088;43.238;23.110;2023-08-06T08:36:40;95327.09;;;26.01;66.87
39363;BME280;25088;43.238;23.110;2023-08-06T08:39:06;95326.41;;;26.11;67.51
39363;BME280;25088;43.238;23.110;2023-08-06T08:41:32;95335.03;;;26.40;67.24
39363;BME280;25088;43.238;23.110;2023-08-06T08:43:58;95321.72;;;26.74;64.22
39363;BME280;25088;43.238;23.110;2023-08-06T08:46:26;95316.47;;;27.35;61.55
39363;BME280;25088;43.238;23.110;2023-08-06T08:48:56;95313.94;;;27.95;60.37
39363;BME280;25088;43.238;23.110;2023-08-06T08:51:23;95310.75;;;28.32;59.38
39363;BME280;25088;43.238;23.110;2023-08-06T08:53:49;95307.94;;;28.29;58.43
39363;BME280;25088;43.238;23.110;2023-08-06T08:56:17;95303.94;;;28.76;56.02
39363;BME280;25088;43.238;23.110;2023-08-06T08:58:43;95300.72;;;28.99;54.54
39363;BME280;25088;43.238;23.110;2023-08-06T09:01:08;95300.66;;;29.17;54.18
39363;BME280;25088;43.238;23.110;2023-08-06T09:03:36;95312.66;;;29.35;52.99
39363;BME280;25088;43.238;23.110;2023-08-06T09:06:02;95305.34;;;29.52;54.13
39363;BME280;25088;43.238;23.110;2023-08-06T09:08:34;95301.84;;;29.34;54.25
39363;BME280;25088;43.238;23.110;2023-08-06T09:11:01;95300.13;;;29.61;52.01
39363;BME280;25088;43.238;23.110;2023-08-06T09:13:28;95294.88;;;29.64;52.49
39363;BME280;25088;43.238;23.110;2023-08-06T09:15:53;95302.66;;;30.08;51.45
39363;BME280;25088;43.238;23.110;2023-08-06T09:18:29;95289.78;;;30.62;50.64
39363;BME280;25088;43.238;23.110;2023-08-06T09:20:58;95281.41;;;31.00;49.86
39363;BME280;25088;43.238;23.110;2023-08-06T09:23:28;95275.34;;;30.57;48.35
39363;BME280;25088;43.238;23.110;2023-08-06T09:25:58;95268.84;;;31.08;50.11
39363;BME280;25088;43.238;23.110;2023-08-06T09:28:24;95268.13;;;31.01;46.44
39363;BME280;25088;43.238;23.110;2023-08-06T09:30:50;95270.75;;;30.81;47.77
39363;BME280;25088;43.238;23.110;2023-08-06T09:33:18;95274.84;;;31.10;47.51
39363;BME280;25088;43.238;23.110;2023-08-06T09:35:46;95266.13;;;31.35;45.04
39363;BME280;25088;43.238;23.110;2023-08-06T09:38:12;95264.91;;;31.67;44.09
39363;BME280;25088;43.238;23.110;2023-08-06T09:40:39;95269.72;;;31.39;43.60
39363;BME280;25088;43.238;23.110;2023-08-06T09:43:05;95276.25;;;30.92;45.37
39363;BME280;25088;43.238;23.110;2023-08-06T09:45:32;95283.28;;;30.73;46.13
39363;BME280;25088;43.238;23.110;2023-08-06T09:47:58;95285.06;;;30.52;46.31
39363;BME280;25088;43.238;23.110;2023-08-06T09:50:29;95290.50;;;30.25;47.30
39363;BME280;25088;43.238;23.110;2023-08-06T09:52:56;95272.66;;;29.83;49.27
39363;BME280;25088;43.238;23.110;2023-08-06T09:55:22;95274.00;;;29.61;47.56
39363;BME280;25088;43.238;23.110;2023-08-06T09:57:49;95284.88;;;29.59;48.39
39363;BME280;25088;43.238;23.110;2023-08-06T10:00:15;95278.84;;;29.60;47.30
39363;BME280;25088;43.238;23.110;2023-08-06T10:02:41;95280.94;;;29.35;47.17
39363;BME280;25088;43.238;23.110;2023-08-06T10:05:08;95286.50;;;29.49;47.48
39363;BME280;25088;43.238;23.110;2023-08-06T10:07:34;95291.22;;;29.74;48.98
39363;BME280;25088;43.238;23.110;2023-08-06T10:10:06;95297.31;;;29.61;48.00
39363;BME280;25088;43.238;23.110;2023-08-06T10:12:34;95303.06;;;29.19;48.75
39363;BME280;25088;43.238;23.110;2023-08-06T10:15:03;95308.31;;;28.92;50.23
39363;BME280;25088;43.238;23.110;2023-08-06T10:17:34;95304.34;;;28.68;52.10
39363;BME280;25088;43.238;23.110;2023-08-06T10:20:00;95308.38;;;28.56;54.56
39363;BME280;25088;43.238;23.110;2023-08-06T10:22:26;95303.13;;;28.33;55.62
39363;BME280;25088;43.238;23.110;2023-08-06T10:24:54;95287.06;;;28.01;57.53
39363;BME280;25088;43.238;23.110;2023-08-06T10:27:34;95305.56;;;28.38;59.40
39363;BME280;25088;43.238;23.110;2023-08-06T10:32:51;95305.97;;;29.92;52.23
39363;BME280;25088;43.238;23.110;2023-08-06T10:38:12;95283.06;;;31.35;46.95
39363;BME280;25088;43.238;23.110;2023-08-06T10:40:48;95292.22;;;31.05;45.64
39363;BME280;25088;43.238;23.110;2023-08-06T10:43:37;95294.94;;;31.16;47.05
39363;BME280;25088;43.238;23.110;2023-08-06T10:46:22;95285.41;;;31.40;45.01
39363;BME280;25088;43.238;23.110;2023-08-06T10:48:48;95290.78;;;31.62;42.58
39363;BME280;25088;43.238;23.110;2023-08-06T10:51:14;95276.09;;;32.05;42.93
39363;BME280;25088;43.238;23.110;2023-08-06T10:53:47;95288.28;;;31.67;44.02
39363;BME280;25088;43.238;23.110;2023-08-06T10:56:14;95280.78;;;31.23;46.44
39363;BME280;25088;43.238;23.110;2023-08-06T10:58:40;95288.16;;;31.10;45.89
39363;BME280;25088;43.238;23.110;2023-08-06T11:01:06;95300.06;;;30.87;44.52
39363;BME280;25088;43.238;23.110;2023-08-06T11:03:33;95307.06;;;30.20;47.90
39363;BME280;25088;43.238;23.110;2023-08-06T11:05:59;95311.81;;;29.39;49.15
39363;BME280;25088;43.238;23.110;2023-08-06T11:08:29;95317.56;;;28.89;49.65
39363;BME280;25088;43.238;23.110;2023-08-06T11:11:15;95312.34;;;28.91;53.99
39363;BME280;25088;43.238;23.110;2023-08-06T11:13:42;95325.59;;;28.90;56.21
39363;BME280;25088;43.238;23.110;2023-08-06T11:16:10;95330.00;;;29.05;54.46
39363;BME280;25088;43.238;23.110;2023-08-06T11:18:36;95337.00;;;29.78;53.77
39363;BME280;25088;43.238;23.110;2023-08-06T11:21:02;95334.09;;;29.96;50.12
39363;BME280;25088;43.238;23.110;2023-08-06T11:23:28;95317.28;;;29.85;51.84
39363;BME280;25088;43.238;23.110;2023-08-06T11:25:55;95346.06;;;28.83;54.71
39363;BME280;25088;43.238;23.110;2023-08-06T11:28:20;95360.09;;;28.44;54.63
39363;BME280;25088;43.238;23.110;2023-08-06T11:30:49;95345.69;;;28.42;54.19
39363;BME280;25088;43.238;23.110;2023-08-06T11:33:24;95348.03;;;28.33;53.40
39363;BME280;25088;43.238;23.110;2023-08-06T11:35:57;95351.59;;;29.37;51.25
39363;BME280;25088;43.238;23.110;2023-08-06T11:38:29;95351.56;;;30.35;50.21
39363;BME280;25088;43.238;23.110;2023-08-06T11:40:55;95348.38;;;30.89;47.93
39363;BME280;25088;43.238;23.110;2023-08-06T11:43:21;95344.34;;;31.65;46.13
39363;BME280;25088;43.238;23.110;2023-08-06T11:45:48;95332.94;;;32.07;45.16
39363;BME280;25088;43.238;23.110;2023-08-06T11:48:14;95326.69;;;31.92;44.97
39363;BME280;25088;43.238;23.110;2023-08-06T11:50:40;95336.16;;;31.75;45.75
39363;BME280;25088;43.238;23.110;2023-08-06T11:53:06;95334.31;;;31.95;45.34
39363;BME280;25088;43.238;23.110;2023-08-06T11:55:32;95334.66;;;32.01;44.67
39363;BME280;25088;43.238;23.110;2023-08-06T11:57:58;95320.59;;;32.24;44.66
39363;BME280;25088;43.238;23.110;2023-08-06T12:00:25;95322.22;;;32.22;44.38
39363;BME280;25088;43.238;23.110;2023-08-06T12:02:51;95329.06;;;32.24;44.03
39363;BME280;25088;43.238;23.110;2023-08-06T12:05:21;95327.91;;;31.91;45.05
39363;BME280;25088;43.238;23.110;2023-08-06T12:07:52;95322.50;;;32.04;44.70
39363;BME280;25088;43.238;23.110;2023-08-06T12:10:18;95317.41;;;32.49;43.79
39363;BME280;25088;43.238;23.110;2023-08-06T12:12:47;95303.91;;;32.33;43.73
39363;BME280;25088;43.238;23.110;2023-08-06T12:15:13;95310.91;;;32.52;43.10
39363;BME280;25088;43.238;23.110;2023-08-06T12:17:39;95309.38;;;32.48;43.41
39363;BME280;25088;43.238;23.110;2023-08-06T12:20:05;95315.66;;;32.82;42.86
39363;BME280;25088;43.238;23.110;2023-08-06T12:22:32;95313.19;;;32.37;43.92
39363;BME280;25088;43.238;23.110;2023-08-06T12:25:01;95312.44;;;32.80;43.48
39363;BME280;25088;43.238;23.110;2023-08-06T12:27:28;95316.41;;;33.10;41.54
39363;BME280;25088;43.238;23.110;2023-08-06T12:29:54;95306.94;;;32.73;42.59
39363;BME280;25088;43.238;23.110;2023-08-06T12:32:19;95296.06;;;32.48;42.15
39363;BME280;25088;43.238;23.110;2023-08-06T12:34:45;95293.38;;;32.10;42.95
39363;BME280;25088;43.238;23.110;2023-08-06T12:37:12;95309.97;;;31.02;43.61
39363;BME280;25088;43.238;23.110;2023-08-06T12:39:38;95302.75;;;30.53;45.39
39363;BME280;25088;43.238;23.110;2023-08-06T12:42:05;95297.50;;;30.58;46.24
39363;BME280;25088;43.238;23.110;2023-08-06T12:44:32;95291.47;;;30.56;46.73
39363;BME280;25088;43.238;23.110;2023-08-06T12:46:58;95280.19;;;30.56;46.17
39363;BME280;25088;43.238;23.110;2023-08-06T12:49:24;95280.41;;;30.80;45.86
39363;BME280;25088;43.238;23.110;2023-08-06T12:51:50;95273.38;;;31.67;44.35
39363;BME280;25088;43.238;23.110;2023-08-06T12:54:17;95268.31;;;31.55;43.74
39363;BME280;25088;43.238;23.110;2023-08-06T12:56:44;95263.88;;;31.20;44.41
39363;BME280;25088;43.238;23.110;2023-08-06T12:59:09;95267.03;;;30.87;44.47
39363;BME280;25088;43.238;23.110;2023-08-06T13:01:36;95277.69;;;30.66;45.66